sensor_id;sensor_type;location;lat;lon;timestamp;P1;durP1;ratioP1;P2;durP2;ratioP2
13173;SDS011;6652;48.802;9.190;2024-03-25T00:01:48;4.97;;;2.00;;
13173;SDS011;6652;48.802;9.190;2024-03-25T00:04:15;2.83;;;1.85;;
13173;SDS011;6652;48.802;9.190;2024-03-25T00:06:41;4.82;;;2.17;;
13173;SDS011;6652;48.802;9.190;2024-03-25T00:09:08;6.93;;;2.50;;
13173;SDS011;6652;48.802;9.190;2024-03-25T00:11:38;6.05;;;2.10;;
13173;SDS011;6652;48.802;9.190;2024-03-25T00:14:05;10.02;;;2.42;;
13173;SDS011;6652;48.802;9.190;2024-03-25T00:16:31;6.32;;;2.38;;
13173;SDS011;6652;48.802;9.190;2024-03-25T00:19:00;5.18;;;2.35;;
13173;SDS011;6652;48.802;9.190;2024-03-25T00:21:26;5.30;;;2.28;;
13173;SDS011;6652;48.802;9.190;2024-03-25T00:23:53;11.65;;;2.40;;
13173;SDS011;6652;48.802;9.190;2024-03-25T00:26:21;9.50;;;3.10;;
13173;SDS011;6652;48.802;9.190;2024-03-25T00:28:48;8.80;;;2.13;;
13173;SDS011;6652;48.802;9.190;2024-03-25T00:31:14;7.30;;;2.33;;
13173;SDS011;6652;48.802;9.190;2024-03-25T00:33:41;5.72;;;2.45;;
13173;SDS011;6652;48.802;9.190;2024-03-25T00:36:09;6.93;;;2.47;;
13173;SDS011;6652;48.802;9.190;2024-03-25T00:38:36;7.85;;;2.17;;
13173;SDS011;6652;48.802;9.190;2024-03-25T00:41:02;5.13;;;2.47;;
13173;SDS011;6652;48.802;9.190;2024-03-25T00:43:29;7.53;;;2.60;;
13173;SDS011;6652;48.802;9.190;2024-03-25T00:45:55;7.20;;;2.78;;
13173;SDS011;6652;48.802;9.190;2024-03-25T00:48:22;8.45;;;2.40;;
13173;SDS011;6652;48.802;9.190;2024-03-25T00:50:48;8.68;;;2.30;;
13173;SDS011;6652;48.802;9.190;2024-03-25T00:53:16;4.55;;;2.15;;
13173;SDS011;6652;48.802;9.190;2024-03-25T00:55:43;6.20;;;2.15;;
13173;SDS011;6652;48.802;9.190;2024-03-25T00:58:10;5.32;;;2.33;;
13173;SDS011;6652;48.802;9.190;2024-03-25T01:00:36;7.93;;;2.65;;
13173;SDS011;6652;48.802;9.190;2024-03-25T01:03:03;8.77;;;2.42;;
13173;SDS011;6652;48.802;9.190;2024-03-25T01:05:29;6.18;;;2.40;;
13173;SDS011;6652;48.802;9.190;2024-03-25T01:07:56;7.70;;;2.67;;
13173;SDS011;6652;48.802;9.190;2024-03-25T01:10:23;5.70;;;2.50;;
13173;SDS011;6652;48.802;9.190;2024-03-25T01:12:51;11.07;;;2.83;;
13173;SDS011;6652;48.802;9.190;2024-03-25T01:15:17;10.07;;;2.92;;
13173;SDS011;6652;48.802;9.190;2024-03-25T01:17:44;8.20;;;3.47;;
13173;SDS011;6652;48.802;9.190;2024-03-25T01:20:10;9.43;;;2.50;;
13173;SDS011;6652;48.802;9.190;2024-03-25T01:22:37;7.97;;;2.35;;
13173;SDS011;6652;48.802;9.190;2024-03-25T01:25:04;9.73;;;2.63;;
13173;SDS011;6652;48.802;9.190;2024-03-25T01:27:33;5.80;;;2.60;;
13173;SDS011;6652;48.802;9.190;2024-03-25T01:29:59;9.25;;;3.00;;
13173;SDS011;6652;48.802;9.190;2024-03-25T01:32:29;9.40;;;2.30;;
13173;SDS011;6652;48.802;9.190;2024-03-25T01:34:55;9.32;;;2.58;;
13173;SDS011;6652;48.802;9.190;2024-03-25T01:37:22;10.55;;;2.47;;
13173;SDS011;6652;48.802;9.190;2024-03-25T01:39:48;6.68;;;2.63;;
13173;SDS011;6652;48.802;9.190;2024-03-25T01:42:15;9.95;;;2.78;;
13173;SDS011;6652;48.802;9.190;2024-03-25T01:44:42;5.75;;;2.47;;
13173;SDS011;6652;48.802;9.190;2024-03-25T01:47:09;8.25;;;2.53;;
13173;SDS011;6652;48.802;9.190;2024-03-25T01:49:35;7.30;;;2.50;;
13173;SDS011;6652;48.802;9.190;2024-03-25T01:52:02;10.02;;;3.10;;
13173;SDS011;6652;48.802;9.190;2024-03-25T01:54:28;5.10;;;2.67;;
13173;SDS011;6652;48.802;9.190;2024-03-25T01:56:55;4.15;;;2.45;;
13173;SDS011;6652;48.802;9.190;2024-03-25T01:59:22;6.97;;;2.70;;
13173;SDS011;6652;48.802;9.190;2024-03-25T02:01:52;6.28;;;2.42;;
13173;SDS011;6652;48.802;9.190;2024-03-25T02:04:19;8.77;;;2.67;;
13173;SDS011;6652;48.802;9.190;2024-03-25T02:06:47;9.18;;;3.35;;
13173;SDS011;6652;48.802;9.190;2024-03-25T02:09:14;8.05;;;2.90;;
13173;SDS011;6652;48.802;9.190;2024-03-25T02:11:42;5.63;;;2.47;;
13173;SDS011;6652;48.802;9.190;2024-03-25T02:14:08;8.18;;;2.47;;
13173;SDS011;6652;48.802;9.190;2024-03-25T02:16:35;7.00;;;2.50;;
13173;SDS011;6652;48.802;9.190;2024-03-25T02:19:02;6.03;;;2.70;;
13173;SDS011;6652;48.802;9.190;2024-03-25T02:21:29;5.93;;;3.25;;
13173;SDS011;6652;48.802;9.190;2024-03-25T02:23:56;11.55;;;2.63;;
13173;SDS011;6652;48.802;9.190;2024-03-25T02:26:26;6.45;;;2.28;;
13173;SDS011;6652;48.802;9.190;2024-03-25T02:28:53;8.65;;;2.55;;
13173;SDS011;6652;48.802;9.190;2024-03-25T02:31:20;10.68;;;2.88;;
13173;SDS011;6652;48.802;9.190;2024-03-25T02:33:45;9.40;;;2.80;;
13173;SDS011;6652;48.802;9.190;2024-03-25T02:36:13;8.05;;;2.17;;
13173;SDS011;6652;48.802;9.190;2024-03-25T02:38:38;9.18;;;3.00;;
13173;SDS011;6652;48.802;9.190;2024-03-25T02:41:06;4.60;;;2.60;;
13173;SDS011;6652;48.802;9.190;2024-03-25T02:43:33;12.50;;;3.00;;
13173;SDS011;6652;48.802;9.190;2024-03-25T02:46:00;7.07;;;2.80;;
13173;SDS011;6652;48.802;9.190;2024-03-25T02:48:26;8.48;;;2.83;;
13173;SDS011;6652;48.802;9.190;2024-03-25T02:50:53;8.73;;;2.90;;
13173;SDS011;6652;48.802;9.190;2024-03-25T02:53:18;10.60;;;3.10;;
13173;SDS011;6652;48.802;9.190;2024-03-25T02:55:45;7.53;;;2.85;;
13173;SDS011;6652;48.802;9.190;2024-03-25T02:58:11;12.32;;;3.15;;
13173;SDS011;6652;48.802;9.190;2024-03-25T03:00:40;5.80;;;2.45;;
13173;SDS011;6652;48.802;9.190;2024-03-25T03:03:06;8.60;;;2.67;;
13173;SDS011;6652;48.802;9.190;2024-03-25T03:05:34;5.47;;;2.45;;
13173;SDS011;6652;48.802;9.190;2024-03-25T03:08:00;7.57;;;2.90;;
13173;SDS011;6652;48.802;9.190;2024-03-25T03:10:27;7.20;;;2.47;;
13173;SDS011;6652;48.802;9.190;2024-03-25T03:12:53;8.45;;;2.55;;
13173;SDS011;6652;48.802;9.190;2024-03-25T03:15:20;12.45;;;3.33;;
13173;SDS011;6652;48.802;9.190;2024-03-25T03:17:47;8.95;;;2.70;;
13173;SDS011;6652;48.802;9.190;2024-03-25T03:20:14;8.75;;;2.70;;
13173;SDS011;6652;48.802;9.190;2024-03-25T03:22:40;8.02;;;2.78;;
13173;SDS011;6652;48.802;9.190;2024-03-25T03:25:07;16.67;;;3.20;;
13173;SDS011;6652;48.802;9.190;2024-03-25T03:27:33;13.20;;;2.85;;
13173;SDS011;6652;48.802;9.190;2024-03-25T03:30:00;9.07;;;2.95;;
13173;SDS011;6652;48.802;9.190;2024-03-25T03:32:26;9.93;;;3.75;;
13173;SDS011;6652;48.802;9.190;2024-03-25T03:34:54;9.02;;;4.05;;
13173;SDS011;6652;48.802;9.190;2024-03-25T03:37:20;12.27;;;2.88;;
13173;SDS011;6652;48.802;9.190;2024-03-25T03:39:47;11.57;;;3.22;;
13173;SDS011;6652;48.802;9.190;2024-03-25T03:42:12;13.23;;;3.33;;
13173;SDS011;6652;48.802;9.190;2024-03-25T03:44:39;8.88;;;2.90;;
13173;SDS011;6652;48.802;9.190;2024-03-25T03:47:05;6.97;;;2.80;;
13173;SDS011;6652;48.802;9.190;2024-03-25T03:49:32;7.38;;;3.05;;
13173;SDS011;6652;48.802;9.190;2024-03-25T03:51:59;7.80;;;2.83;;
13173;SDS011;6652;48.802;9.190;2024-03-25T03:54:26;8.18;;;2.78;;
13173;SDS011;6652;48.802;9.190;2024-03-25T03:56:52;10.93;;;4.00;;
13173;SDS011;6652;48.802;9.190;2024-03-25T03:59:18;7.32;;;2.75;;
13173;SDS011;6652;48.802;9.190;2024-03-25T04:01:44;6.65;;;3.40;;
13173;SDS011;6652;48.802;9.190;2024-03-25T04:04:11;9.05;;;3.20;;
13173;SDS011;6652;48.802;9.190;2024-03-25T04:06:37;12.40;;;3.55;;
13173;SDS011;6652;48.802;9.190;2024-03-25T04:09:06;9.60;;;3.20;;
13173;SDS011;6652;48.802;9.190;2024-03-25T04:11:35;9.32;;;3.08;;
13173;SDS011;6652;48.802;9.190;2024-03-25T04:14:01;12.93;;;3.20;;
13173;SDS011;6652;48.802;9.190;2024-03-25T04:16:28;9.02;;;3.45;;
13173;SDS011;6652;48.802;9.190;2024-03-25T04:18:55;6.70;;;2.90;;
13173;SDS011;6652;48.802;9.190;2024-03-25T04:21:22;12.13;;;3.67;;
13173;SDS011;6652;48.802;9.190;2024-03-25T04:23:49;9.48;;;3.40;;
13173;SDS011;6652;48.802;9.190;2024-03-25T04:26:16;10.90;;;3.75;;
13173;SDS011;6652;48.802;9.190;2024-03-25T04:28:43;5.93;;;2.63;;
13173;SDS011;6652;48.802;9.190;2024-03-25T04:31:09;10.02;;;3.13;;
13173;SDS011;6652;48.802;9.190;2024-03-25T04:33:36;8.43;;;2.53;;
13173;SDS011;6652;48.802;9.190;2024-03-25T04:36:02;13.20;;;3.35;;
13173;SDS011;6652;48.802;9.190;2024-03-25T04:38:29;9.25;;;3.30;;
13173;SDS011;6652;48.802;9.190;2024-03-25T04:40:55;12.10;;;3.85;;
13173;SDS011;6652;48.802;9.190;2024-03-25T04:43:22;10.73;;;3.28;;
13173;SDS011;6652;48.802;9.190;2024-03-25T04:45:48;9.80;;;3.78;;
13173;SDS011;6652;48.802;9.190;2024-03-25T04:48:14;8.63;;;3.33;;
13173;SDS011;6652;48.802;9.190;2024-03-25T04:50:39;9.00;;;3.25;;
13173;SDS011;6652;48.802;9.190;2024-03-25T04:53:05;8.13;;;3.00;;
13173;SDS011;6652;48.802;9.190;2024-03-25T04:55:31;11.52;;;2.92;;
13173;SDS011;6652;48.802;9.190;2024-03-25T04:57:57;10.85;;;3.17;;
13173;SDS011;6652;48.802;9.190;2024-03-25T05:00:25;6.28;;;2.72;;
13173;SDS011;6652;48.802;9.190;2024-03-25T05:02:51;7.45;;;3.42;;
13173;SDS011;6652;48.802;9.190;2024-03-25T05:05:17;7.15;;;3.13;;
13173;SDS011;6652;48.802;9.190;2024-03-25T05:07:43;11.95;;;3.45;;
13173;SDS011;6652;48.802;9.190;2024-03-25T05:10:08;9.00;;;3.63;;
13173;SDS011;6652;48.802;9.190;2024-03-25T05:12:34;7.55;;;3.58;;
13173;SDS011;6652;48.802;9.190;2024-03-25T05:15:00;13.05;;;3.03;;
13173;SDS011;6652;48.802;9.190;2024-03-25T05:17:28;10.45;;;3.20;;
13173;SDS011;6652;48.802;9.190;2024-03-25T05:19:53;11.70;;;3.50;;
13173;SDS011;6652;48.802;9.190;2024-03-25T05:22:19;12.15;;;4.78;;
13173;SDS011;6652;48.802;9.190;2024-03-25T05:24:45;10.77;;;3.17;;
13173;SDS011;6652;48.802;9.190;2024-03-25T05:27:11;10.05;;;3.40;;
13173;SDS011;6652;48.802;9.190;2024-03-25T05:29:37;9.80;;;3.58;;
13173;SDS011;6652;48.802;9.190;2024-03-25T05:32:03;6.07;;;3.25;;
13173;SDS011;6652;48.802;9.190;2024-03-25T05:34:31;10.27;;;3.65;;
13173;SDS011;6652;48.802;9.190;2024-03-25T05:36:56;10.60;;;3.22;;
13173;SDS011;6652;48.802;9.190;2024-03-25T05:39:22;9.52;;;3.22;;
13173;SDS011;6652;48.802;9.190;2024-03-25T05:41:48;7.10;;;3.35;;
13173;SDS011;6652;48.802;9.190;2024-03-25T05:44:14;11.50;;;3.70;;
13173;SDS011;6652;48.802;9.190;2024-03-25T05:46:40;11.52;;;3.80;;
13173;SDS011;6652;48.802;9.190;2024-03-25T05:49:06;17.17;;;4.35;;
13173;SDS011;6652;48.802;9.190;2024-03-25T05:51:33;12.70;;;3.63;;
13173;SDS011;6652;48.802;9.190;2024-03-25T05:53:59;9.18;;;3.20;;
13173;SDS011;6652;48.802;9.190;2024-03-25T05:56:25;6.40;;;3.05;;
13173;SDS011;6652;48.802;9.190;2024-03-25T05:58:51;6.03;;;2.67;;
13173;SDS011;6652;48.802;9.190;2024-03-25T06:01:17;9.98;;;2.85;;
13173;SDS011;6652;48.802;9.190;2024-03-25T06:03:43;10.02;;;2.63;;
13173;SDS011;6652;48.802;9.190;2024-03-25T06:06:09;10.73;;;3.70;;
13173;SDS011;6652;48.802;9.190;2024-03-25T06:08:36;8.82;;;3.03;;
13173;SDS011;6652;48.802;9.190;2024-03-25T06:11:02;10.02;;;3.15;;
13173;SDS011;6652;48.802;9.190;2024-03-25T06:13:29;8.77;;;2.95;;
13173;SDS011;6652;48.802;9.190;2024-03-25T06:15:55;9.02;;;2.83;;
13173;SDS011;6652;48.802;9.190;2024-03-25T06:18:21;7.00;;;2.97;;
13173;SDS011;6652;48.802;9.190;2024-03-25T06:20:47;8.48;;;2.60;;
13173;SDS011;6652;48.802;9.190;2024-03-25T06:23:21;6.78;;;2.80;;
13173;SDS011;6652;48.802;9.190;2024-03-25T06:25:50;7.35;;;2.85;;
13173;SDS011;6652;48.802;9.190;2024-03-25T06:28:17;7.68;;;2.63;;
13173;SDS011;6652;48.802;9.190;2024-03-25T06:30:42;8.05;;;2.53;;
13173;SDS011;6652;48.802;9.190;2024-03-25T06:33:28;6.70;;;2.78;;
13173;SDS011;6652;48.802;9.190;2024-03-25T06:36:12;11.95;;;2.45;;
13173;SDS011;6652;48.802;9.190;2024-03-25T06:38:38;7.28;;;2.70;;
13173;SDS011;6652;48.802;9.190;2024-03-25T06:41:06;6.97;;;2.33;;
13173;SDS011;6652;48.802;9.190;2024-03-25T06:43:32;9.65;;;3.30;;
13173;SDS011;6652;48.802;9.190;2024-03-25T06:45:58;6.05;;;2.63;;
13173;SDS011;6652;48.802;9.190;2024-03-25T06:48:24;7.72;;;2.47;;
13173;SDS011;6652;48.802;9.190;2024-03-25T06:50:53;6.30;;;2.35;;
13173;SDS011;6652;48.802;9.190;2024-03-25T06:53:20;9.48;;;2.65;;
13173;SDS011;6652;48.802;9.190;2024-03-25T06:55:53;9.40;;;2.60;;
13173;SDS011;6652;48.802;9.190;2024-03-25T07:00:47;7.38;;;2.90;;
13173;SDS011;6652;48.802;9.190;2024-03-25T07:03:13;9.30;;;2.58;;
13173;SDS011;6652;48.802;9.190;2024-03-25T07:05:39;8.43;;;2.90;;
13173;SDS011;6652;48.802;9.190;2024-03-25T07:08:05;8.98;;;3.38;;
13173;SDS011;6652;48.802;9.190;2024-03-25T07:10:31;12.15;;;2.72;;
13173;SDS011;6652;48.802;9.190;2024-03-25T07:12:57;5.93;;;2.40;;
13173;SDS011;6652;48.802;9.190;2024-03-25T07:15:24;8.82;;;2.58;;
13173;SDS011;6652;48.802;9.190;2024-03-25T07:17:50;8.48;;;2.42;;
13173;SDS011;6652;48.802;9.190;2024-03-25T07:20:16;9.73;;;2.88;;
13173;SDS011;6652;48.802;9.190;2024-03-25T07:25:17;8.65;;;2.97;;
13173;SDS011;6652;48.802;9.190;2024-03-25T07:27:43;7.18;;;2.17;;
13173;SDS011;6652;48.802;9.190;2024-03-25T07:30:09;7.00;;;2.80;;
13173;SDS011;6652;48.802;9.190;2024-03-25T07:32:37;10.60;;;2.58;;
13173;SDS011;6652;48.802;9.190;2024-03-25T07:35:03;5.70;;;2.38;;
13173;SDS011;6652;48.802;9.190;2024-03-25T07:37:30;4.00;;;2.05;;
13173;SDS011;6652;48.802;9.190;2024-03-25T07:39:57;7.75;;;2.10;;
13173;SDS011;6652;48.802;9.190;2024-03-25T07:42:23;7.30;;;2.10;;
13173;SDS011;6652;48.802;9.190;2024-03-25T07:44:49;5.78;;;2.00;;
13173;SDS011;6652;48.802;9.190;2024-03-25T07:47:15;9.98;;;2.70;;
13173;SDS011;6652;48.802;9.190;2024-03-25T07:49:42;5.88;;;2.08;;
13173;SDS011;6652;48.802;9.190;2024-03-25T07:52:08;8.23;;;2.10;;
13173;SDS011;6652;48.802;9.190;2024-03-25T07:54:34;10.07;;;3.85;;
13173;SDS011;6652;48.802;9.190;2024-03-25T07:57:00;9.70;;;2.63;;
13173;SDS011;6652;48.802;9.190;2024-03-25T07:59:26;8.65;;;2.08;;
13173;SDS011;6652;48.802;9.190;2024-03-25T08:01:52;6.30;;;2.25;;
13173;SDS011;6652;48.802;9.190;2024-03-25T08:04:18;5.03;;;2.03;;
13173;SDS011;6652;48.802;9.190;2024-03-25T08:06:45;5.28;;;1.95;;
13173;SDS011;6652;48.802;9.190;2024-03-25T08:09:11;7.97;;;2.05;;
13173;SDS011;6652;48.802;9.190;2024-03-25T08:11:37;8.68;;;2.22;;
13173;SDS011;6652;48.802;9.190;2024-03-25T08:14:03;5.70;;;1.75;;
13173;SDS011;6652;48.802;9.190;2024-03-25T08:16:29;5.38;;;1.92;;
13173;SDS011;6652;48.802;9.190;2024-03-25T08:18:55;8.80;;;1.95;;
13173;SDS011;6652;48.802;9.190;2024-03-25T08:21:22;6.60;;;2.13;;
13173;SDS011;6652;48.802;9.190;2024-03-25T08:23:50;6.18;;;1.75;;
13173;SDS011;6652;48.802;9.190;2024-03-25T08:26:16;5.13;;;1.48;;
13173;SDS011;6652;48.802;9.190;2024-03-25T08:28:42;5.53;;;1.60;;
13173;SDS011;6652;48.802;9.190;2024-03-25T08:31:08;7.03;;;2.10;;
13173;SDS011;6652;48.802;9.190;2024-03-25T08:33:34;6.95;;;1.88;;
13173;SDS011;6652;48.802;9.190;2024-03-25T08:36:00;7.07;;;1.80;;
13173;SDS011;6652;48.802;9.190;2024-03-25T08:38:26;5.97;;;1.92;;
13173;SDS011;6652;48.802;9.190;2024-03-25T08:40:53;7.72;;;1.85;;
13173;SDS011;6652;48.802;9.190;2024-03-25T08:43:19;4.80;;;1.60;;
13173;SDS011;6652;48.802;9.190;2024-03-25T08:45:45;6.47;;;1.95;;
13173;SDS011;6652;48.802;9.190;2024-03-25T08:48:12;5.85;;;1.90;;
13173;SDS011;6652;48.802;9.190;2024-03-25T08:50:38;6.43;;;2.35;;
13173;SDS011;6652;48.802;9.190;2024-03-25T08:53:04;3.65;;;1.50;;
13173;SDS011;6652;48.802;9.190;2024-03-25T08:55:31;6.78;;;1.83;;
13173;SDS011;6652;48.802;9.190;2024-03-25T08:57:58;4.97;;;1.80;;
13173;SDS011;6652;48.802;9.190;2024-03-25T09:00:24;6.25;;;2.08;;
13173;SDS011;6652;48.802;9.190;2024-03-25T09:02:51;6.10;;;2.10;;
13173;SDS011;6652;48.802;9.190;2024-03-25T09:05:16;5.30;;;1.50;;
13173;SDS011;6652;48.802;9.190;2024-03-25T09:07:43;7.43;;;1.58;;
13173;SDS011;6652;48.802;9.190;2024-03-25T09:10:09;4.78;;;1.40;;
13173;SDS011;6652;48.802;9.190;2024-03-25T09:12:54;4.82;;;1.40;;
13173;SDS011;6652;48.802;9.190;2024-03-25T09:15:21;3.78;;;1.70;;
13173;SDS011;6652;48.802;9.190;2024-03-25T09:17:47;4.18;;;1.55;;
13173;SDS011;6652;48.802;9.190;2024-03-25T09:20:13;7.97;;;2.05;;
13173;SDS011;6652;48.802;9.190;2024-03-25T09:22:41;5.47;;;1.85;;
13173;SDS011;6652;48.802;9.190;2024-03-25T09:25:07;9.00;;;1.67;;
13173;SDS011;6652;48.802;9.190;2024-03-25T09:27:33;6.80;;;1.85;;
13173;SDS011;6652;48.802;9.190;2024-03-25T09:29:59;6.18;;;1.52;;
13173;SDS011;6652;48.802;9.190;2024-03-25T09:32:26;4.85;;;1.52;;
13173;SDS011;6652;48.802;9.190;2024-03-25T09:34:52;3.65;;;1.42;;
13173;SDS011;6652;48.802;9.190;2024-03-25T09:37:18;4.88;;;1.48;;
13173;SDS011;6652;48.802;9.190;2024-03-25T09:39:44;3.33;;;1.40;;
13173;SDS011;6652;48.802;9.190;2024-03-25T09:42:11;7.35;;;1.73;;
13173;SDS011;6652;48.802;9.190;2024-03-25T09:44:40;6.30;;;1.75;;
13173;SDS011;6652;48.802;9.190;2024-03-25T09:47:06;6.07;;;1.90;;
13173;SDS011;6652;48.802;9.190;2024-03-25T09:49:34;13.48;;;2.10;;
13173;SDS011;6652;48.802;9.190;2024-03-25T09:52:00;5.35;;;1.50;;
13173;SDS011;6652;48.802;9.190;2024-03-25T09:54:26;6.03;;;2.22;;
13173;SDS011;6652;48.802;9.190;2024-03-25T09:56:53;5.55;;;1.63;;
13173;SDS011;6652;48.802;9.190;2024-03-25T09:59:19;5.43;;;1.88;;
13173;SDS011;6652;48.802;9.190;2024-03-25T10:01:46;4.88;;;1.75;;
13173;SDS011;6652;48.802;9.190;2024-03-25T10:04:11;4.20;;;1.73;;
13173;SDS011;6652;48.802;9.190;2024-03-25T10:06:40;8.40;;;1.58;;
13173;SDS011;6652;48.802;9.190;2024-03-25T10:09:06;4.95;;;2.05;;
13173;SDS011;6652;48.802;9.190;2024-03-25T10:11:32;5.45;;;1.70;;
13173;SDS011;6652;48.802;9.190;2024-03-25T10:13:59;4.38;;;1.58;;
13173;SDS011;6652;48.802;9.190;2024-03-25T10:16:25;5.05;;;1.55;;
13173;SDS011;6652;48.802;9.190;2024-03-25T10:18:51;3.78;;;1.40;;
13173;SDS011;6652;48.802;9.190;2024-03-25T10:21:19;5.25;;;1.55;;
13173;SDS011;6652;48.802;9.190;2024-03-25T10:23:46;3.83;;;1.80;;
13173;SDS011;6652;48.802;9.190;2024-03-25T10:26:25;6.28;;;1.92;;
13173;SDS011;6652;48.802;9.190;2024-03-25T10:29:01;5.53;;;2.08;;
13173;SDS011;6652;48.802;9.190;2024-03-25T10:31:28;6.38;;;2.20;;
13173;SDS011;6652;48.802;9.190;2024-03-25T10:33:54;6.55;;;1.63;;
13173;SDS011;6652;48.802;9.190;2024-03-25T10:36:20;4.55;;;1.55;;
13173;SDS011;6652;48.802;9.190;2024-03-25T10:38:49;7.40;;;1.65;;
13173;SDS011;6652;48.802;9.190;2024-03-25T10:41:18;5.88;;;1.70;;
13173;SDS011;6652;48.802;9.190;2024-03-25T10:43:46;5.68;;;1.40;;
13173;SDS011;6652;48.802;9.190;2024-03-25T10:46:14;3.58;;;1.48;;
13173;SDS011;6652;48.802;9.190;2024-03-25T10:48:44;4.97;;;1.70;;
13173;SDS011;6652;48.802;9.190;2024-03-25T10:53:52;4.65;;;1.63;;
13173;SDS011;6652;48.802;9.190;2024-03-25T11:01:32;3.80;;;1.52;;
13173;SDS011;6652;48.802;9.190;2024-03-25T11:03:58;6.18;;;1.70;;
13173;SDS011;6652;48.802;9.190;2024-03-25T11:06:25;5.25;;;1.67;;
13173;SDS011;6652;48.802;9.190;2024-03-25T11:08:56;5.68;;;1.70;;
13173;SDS011;6652;48.802;9.190;2024-03-25T11:11:23;3.30;;;1.33;;
13173;SDS011;6652;48.802;9.190;2024-03-25T11:13:55;4.05;;;1.50;;
13173;SDS011;6652;48.802;9.190;2024-03-25T11:16:26;8.85;;;1.95;;
13173;SDS011;6652;48.802;9.190;2024-03-25T11:18:54;4.97;;;1.75;;
13173;SDS011;6652;48.802;9.190;2024-03-25T11:21:24;2.95;;;1.50;;
13173;SDS011;6652;48.802;9.190;2024-03-25T11:23:51;3.03;;;1.40;;
13173;SDS011;6652;48.802;9.190;2024-03-25T11:26:31;5.15;;;1.90;;
13173;SDS011;6652;48.802;9.190;2024-03-25T11:28:57;5.53;;;1.63;;
13173;SDS011;6652;48.802;9.190;2024-03-25T11:31:24;5.32;;;1.80;;
13173;SDS011;6652;48.802;9.190;2024-03-25T11:33:51;4.88;;;1.70;;
13173;SDS011;6652;48.802;9.190;2024-03-25T11:36:17;4.25;;;1.52;;
13173;SDS011;6652;48.802;9.190;2024-03-25T11:38:43;6.32;;;1.45;;
13173;SDS011;6652;48.802;9.190;2024-03-25T11:41:10;5.70;;;1.52;;
13173;SDS011;6652;48.802;9.190;2024-03-25T11:43:37;5.88;;;2.00;;
13173;SDS011;6652;48.802;9.190;2024-03-25T11:46:04;3.83;;;2.03;;
13173;SDS011;6652;48.802;9.190;2024-03-25T11:48:31;4.57;;;1.95;;
13173;SDS011;6652;48.802;9.190;2024-03-25T11:50:57;5.05;;;1.48;;
13173;SDS011;6652;48.802;9.190;2024-03-25T11:53:23;4.30;;;1.33;;
13173;SDS011;6652;48.802;9.190;2024-03-25T11:55:49;4.43;;;1.70;;
13173;SDS011;6652;48.802;9.190;2024-03-25T11:58:16;3.60;;;1.70;;
13173;SDS011;6652;48.802;9.190;2024-03-25T12:00:43;6.60;;;1.58;;
13173;SDS011;6652;48.802;9.190;2024-03-25T12:03:09;5.00;;;1.60;;
13173;SDS011;6652;48.802;9.190;2024-03-25T12:05:36;10.55;;;1.75;;
13173;SDS011;6652;48.802;9.190;2024-03-25T12:08:04;8.52;;;2.00;;
13173;SDS011;6652;48.802;9.190;2024-03-25T12:10:32;4.68;;;1.67;;
13173;SDS011;6652;48.802;9.190;2024-03-25T12:13:18;6.55;;;1.80;;
13173;SDS011;6652;48.802;9.190;2024-03-25T12:15:44;4.30;;;2.00;;
13173;SDS011;6652;48.802;9.190;2024-03-25T12:18:11;8.50;;;2.10;;
13173;SDS011;6652;48.802;9.190;2024-03-25T12:20:37;6.50;;;1.90;;
13173;SDS011;6652;48.802;9.190;2024-03-25T12:23:03;10.20;;;3.05;;
13173;SDS011;6652;48.802;9.190;2024-03-25T12:25:29;5.15;;;1.75;;
13173;SDS011;6652;48.802;9.190;2024-03-25T12:27:55;7.88;;;2.03;;
13173;SDS011;6652;48.802;9.190;2024-03-25T12:30:23;5.50;;;1.67;;
13173;SDS011;6652;48.802;9.190;2024-03-25T12:32:50;4.30;;;1.98;;
13173;SDS011;6652;48.802;9.190;2024-03-25T12:35:17;5.13;;;2.00;;
13173;SDS011;6652;48.802;9.190;2024-03-25T12:37:44;7.28;;;2.17;;
13173;SDS011;6652;48.802;9.190;2024-03-25T12:40:12;3.03;;;1.73;;
13173;SDS011;6652;48.802;9.190;2024-03-25T12:42:39;5.72;;;1.58;;
13173;SDS011;6652;48.802;9.190;2024-03-25T12:45:05;5.90;;;2.28;;
13173;SDS011;6652;48.802;9.190;2024-03-25T12:47:33;5.03;;;2.08;;
13173;SDS011;6652;48.802;9.190;2024-03-25T12:49:59;4.75;;;2.20;;
13173;SDS011;6652;48.802;9.190;2024-03-25T12:52:25;7.38;;;2.03;;
13173;SDS011;6652;48.802;9.190;2024-03-25T12:54:51;5.50;;;1.98;;
13173;SDS011;6652;48.802;9.190;2024-03-25T12:57:18;5.30;;;1.65;;
13173;SDS011;6652;48.802;9.190;2024-03-25T12:59:44;5.55;;;2.08;;
13173;SDS011;6652;48.802;9.190;2024-03-25T13:02:10;8.02;;;1.88;;
13173;SDS011;6652;48.802;9.190;2024-03-25T13:04:40;3.58;;;2.03;;
13173;SDS011;6652;48.802;9.190;2024-03-25T13:07:06;3.55;;;1.55;;
13173;SDS011;6652;48.802;9.190;2024-03-25T13:09:32;6.72;;;2.03;;
13173;SDS011;6652;48.802;9.190;2024-03-25T13:11:58;4.28;;;1.35;;
13173;SDS011;6652;48.802;9.190;2024-03-25T13:14:25;5.32;;;1.40;;
13173;SDS011;6652;48.802;9.190;2024-03-25T13:16:51;4.68;;;1.50;;
13173;SDS011;6652;48.802;9.190;2024-03-25T13:19:17;6.28;;;1.65;;
13173;SDS011;6652;48.802;9.190;2024-03-25T13:21:44;4.05;;;1.75;;
13173;SDS011;6652;48.802;9.190;2024-03-25T13:24:10;6.03;;;2.10;;
13173;SDS011;6652;48.802;9.190;2024-03-25T13:26:36;4.43;;;1.73;;
13173;SDS011;6652;48.802;9.190;2024-03-25T13:29:02;5.47;;;1.77;;
13173;SDS011;6652;48.802;9.190;2024-03-25T13:31:28;3.15;;;1.50;;
13173;SDS011;6652;48.802;9.190;2024-03-25T13:33:54;5.15;;;1.75;;
13173;SDS011;6652;48.802;9.190;2024-03-25T13:36:19;4.72;;;1.98;;
13173;SDS011;6652;48.802;9.190;2024-03-25T13:38:47;7.05;;;2.30;;
13173;SDS011;6652;48.802;9.190;2024-03-25T13:41:13;4.75;;;1.83;;
13173;SDS011;6652;48.802;9.190;2024-03-25T13:43:42;4.93;;;1.70;;
13173;SDS011;6652;48.802;9.190;2024-03-25T13:46:08;6.40;;;1.67;;
13173;SDS011;6652;48.802;9.190;2024-03-25T13:48:34;3.55;;;1.58;;
13173;SDS011;6652;48.802;9.190;2024-03-25T13:51:00;3.83;;;1.70;;
13173;SDS011;6652;48.802;9.190;2024-03-25T13:53:25;5.32;;;1.77;;
13173;SDS011;6652;48.802;9.190;2024-03-25T13:55:53;5.53;;;2.10;;
13173;SDS011;6652;48.802;9.190;2024-03-25T13:58:19;4.75;;;1.73;;
13173;SDS011;6652;48.802;9.190;2024-03-25T14:00:44;6.10;;;1.90;;
13173;SDS011;6652;48.802;9.190;2024-03-25T14:03:10;5.65;;;1.45;;
13173;SDS011;6652;48.802;9.190;2024-03-25T14:05:36;6.78;;;1.83;;
13173;SDS011;6652;48.802;9.190;2024-03-25T14:08:03;4.35;;;1.45;;
13173;SDS011;6652;48.802;9.190;2024-03-25T14:10:29;4.30;;;1.60;;
13173;SDS011;6652;48.802;9.190;2024-03-25T14:12:56;5.07;;;1.83;;
13173;SDS011;6652;48.802;9.190;2024-03-25T14:15:22;8.68;;;2.08;;
13173;SDS011;6652;48.802;9.190;2024-03-25T14:17:48;7.25;;;1.73;;
13173;SDS011;6652;48.802;9.190;2024-03-25T14:20:14;6.47;;;1.60;;
13173;SDS011;6652;48.802;9.190;2024-03-25T14:22:40;5.22;;;1.73;;
13173;SDS011;6652;48.802;9.190;2024-03-25T14:25:06;5.95;;;1.40;;
13173;SDS011;6652;48.802;9.190;2024-03-25T14:27:33;4.78;;;1.50;;
13173;SDS011;6652;48.802;9.190;2024-03-25T14:30:00;3.70;;;1.23;;
13173;SDS011;6652;48.802;9.190;2024-03-25T14:32:26;4.97;;;1.65;;
13173;SDS011;6652;48.802;9.190;2024-03-25T14:34:52;2.63;;;1.38;;
13173;SDS011;6652;48.802;9.190;2024-03-25T14:37:17;5.78;;;1.63;;
13173;SDS011;6652;48.802;9.190;2024-03-25T14:39:43;3.90;;;1.48;;
13173;SDS011;6652;48.802;9.190;2024-03-25T14:42:09;3.53;;;1.42;;
13173;SDS011;6652;48.802;9.190;2024-03-25T14:44:36;6.03;;;1.50;;
13173;SDS011;6652;48.802;9.190;2024-03-25T14:47:04;2.08;;;1.15;;
13173;SDS011;6652;48.802;9.190;2024-03-25T14:49:30;6.47;;;1.30;;
13173;SDS011;6652;48.802;9.190;2024-03-25T14:51:56;9.73;;;1.63;;
13173;SDS011;6652;48.802;9.190;2024-03-25T14:54:22;5.28;;;1.50;;
13173;SDS011;6652;48.802;9.190;2024-03-25T14:56:48;3.70;;;1.40;;
13173;SDS011;6652;48.802;9.190;2024-03-25T14:59:14;3.78;;;1.52;;
13173;SDS011;6652;48.802;9.190;2024-03-25T15:01:40;5.70;;;1.55;;
13173;SDS011;6652;48.802;9.190;2024-03-25T15:04:08;4.97;;;1.80;;
13173;SDS011;6652;48.802;9.190;2024-03-25T15:06:34;2.55;;;1.25;;
13173;SDS011;6652;48.802;9.190;2024-03-25T15:09:00;4.60;;;1.40;;
13173;SDS011;6652;48.802;9.190;2024-03-25T15:11:26;4.13;;;1.20;;